< < Back
Terminal Aerodrome Forecast


Current Version              Previous Versions:   1  2  3  4  5  6  7  8  9  

Terminal Aerodrome Forecast

421
FTUS44 KBMX 260520
TAFMGM
TAF
KMGM 260520Z 2606/2706 00000KT P6SM VCTS SCT050CB
     FM260700 00000KT P6SM SCT250
     FM261700 11005KT P6SM SCT070=

Latest METAR

069
SAUS80 KWBC 261500
MTRMGM
METAR KMGM 261453Z VRB03KT 10SM CLR 28/19 A3006 RMK AO2 SLP177 T02830194
52012


USA.gov is the U.S. government's official web portal to all federal, state and local government web resources and services.